createdAt,value
2024-05-09T00:00:22.409Z,9.30
2024-05-09T00:02:56.479Z,8.43
2024-05-09T00:05:23.051Z,9.52
2024-05-09T00:07:49.542Z,8.43
2024-05-09T00:10:25.099Z,9.80
2024-05-09T00:12:55.771Z,9.10
2024-05-09T00:15:22.152Z,8.57
2024-05-09T00:17:48.658Z,9.48
2024-05-09T00:20:20.508Z,7.95
2024-05-09T00:22:51.065Z,8.18
2024-05-09T00:25:17.515Z,7.88
2024-05-09T00:27:43.897Z,8.30
2024-05-09T00:30:14.569Z,8.63
2024-05-09T00:32:47.618Z,8.05
2024-05-09T00:35:14.212Z,9.38
2024-05-09T00:37:40.669Z,8.27
2024-05-09T00:40:09.620Z,7.80
2024-05-09T00:42:41.273Z,7.53
2024-05-09T00:45:07.702Z,7.15
2024-05-09T00:47:34.419Z,7.85
2024-05-09T00:50:01.838Z,7.53
2024-05-09T00:52:28.299Z,8.20
2024-05-09T00:54:57.572Z,8.35
2024-05-09T00:57:25.399Z,7.80
2024-05-09T00:59:51.799Z,8.75
2024-05-09T01:02:18.310Z,7.40
2024-05-09T01:04:44.871Z,7.43
2024-05-09T01:07:12.564Z,7.60
2024-05-09T01:12:05.766Z,7.15
2024-05-09T01:14:32.231Z,7.60
2024-05-09T01:16:58.672Z,8.15
2024-05-09T01:19:28.234Z,6.68
2024-05-09T01:21:54.720Z,6.43
2024-05-09T01:24:21.093Z,7.00
2024-05-09T01:26:47.703Z,7.07
2024-05-09T01:29:14.240Z,7.15
2024-05-09T01:31:40.696Z,6.90
2024-05-09T01:34:07.059Z,6.65
2024-05-09T01:36:33.495Z,5.38
2024-05-09T01:38:59.864Z,6.25
2024-05-09T01:41:26.404Z,5.40
2024-05-09T01:43:52.988Z,5.45
2024-05-09T01:46:19.504Z,5.40
2024-05-09T01:48:46.269Z,5.32
2024-05-09T01:51:12.893Z,5.60
2024-05-09T01:53:39.489Z,5.60
2024-05-09T01:56:06.160Z,5.70
2024-05-09T01:58:32.570Z,5.22
2024-05-09T02:00:58.977Z,5.50
2024-05-09T02:03:25.481Z,4.97
2024-05-09T02:05:52.028Z,5.00
2024-05-09T02:08:19.914Z,5.38
2024-05-09T02:10:47.544Z,5.43
2024-05-09T02:13:14.665Z,5.43
2024-05-09T02:15:41.052Z,4.85
2024-05-09T02:18:08.334Z,5.57
2024-05-09T02:20:36.872Z,5.72
2024-05-09T02:23:05.914Z,5.30
2024-05-09T02:25:32.971Z,6.05
2024-05-09T02:27:59.674Z,5.47
2024-05-09T02:30:35.823Z,6.20
2024-05-09T02:35:33.497Z,5.50
2024-05-09T02:38:00.124Z,5.70
2024-05-09T02:40:35.488Z,5.60
2024-05-09T02:43:04.600Z,6.03
2024-05-09T02:45:31.036Z,6.15
2024-05-09T02:47:57.875Z,5.75
2024-05-09T02:50:33.122Z,6.53
2024-05-09T02:53:04.287Z,6.00
2024-05-09T02:55:30.783Z,6.10
2024-05-09T02:57:57.151Z,6.53
2024-05-09T03:00:29.810Z,5.85
2024-05-09T03:03:04.212Z,5.47
2024-05-09T03:05:30.952Z,6.40
2024-05-09T03:07:57.451Z,5.85
2024-05-09T03:10:28.497Z,5.28
2024-05-09T03:12:55.560Z,6.20
2024-05-09T03:15:22.632Z,6.00
2024-05-09T03:17:49.286Z,5.85
2024-05-09T03:20:23.270Z,5.00
2024-05-09T03:22:52.707Z,4.75
2024-05-09T03:25:20.487Z,5.47
2024-05-09T03:27:47.262Z,4.85
2024-05-09T03:30:25.936Z,5.00
2024-05-09T03:33:00.057Z,5.43
2024-05-09T03:35:26.681Z,5.15
2024-05-09T03:37:53.151Z,4.88
2024-05-09T03:40:23.786Z,5.20
2024-05-09T03:42:52.921Z,4.88
2024-05-09T03:45:19.294Z,5.55
2024-05-09T03:47:45.983Z,5.53
2024-05-09T03:50:18.506Z,4.82
2024-05-09T03:52:52.347Z,5.05
2024-05-09T03:55:18.849Z,5.28
2024-05-09T03:57:45.239Z,4.70
2024-05-09T04:00:17.910Z,4.82
2024-05-09T04:02:52.220Z,5.10
2024-05-09T04:05:18.774Z,4.38
2024-05-09T04:07:45.349Z,5.28
2024-05-09T04:10:20.942Z,4.32
2024-05-09T04:12:54.418Z,4.75
2024-05-09T04:15:20.817Z,3.95
2024-05-09T04:17:51.268Z,4.57
2024-05-09T04:20:28.783Z,4.53
2024-05-09T04:23:02.913Z,4.30
2024-05-09T04:25:29.302Z,4.65
2024-05-09T04:27:55.967Z,4.55
2024-05-09T04:30:33.686Z,4.40
2024-05-09T04:33:04.853Z,4.57
2024-05-09T04:35:31.506Z,5.00
2024-05-09T04:37:57.983Z,4.30
2024-05-09T04:40:31.456Z,4.32
2024-05-09T04:43:01.337Z,4.65
2024-05-09T04:45:27.711Z,4.05
2024-05-09T04:47:54.455Z,5.15
2024-05-09T04:50:29.403Z,5.30
2024-05-09T04:53:02.137Z,5.07
2024-05-09T04:55:28.547Z,4.97
2024-05-09T04:57:54.902Z,5.00
2024-05-09T05:00:28.921Z,5.10
2024-05-09T05:03:05.594Z,5.43
2024-05-09T05:05:32.283Z,5.13
2024-05-09T05:07:58.870Z,4.63
2024-05-09T05:10:33.268Z,5.10
2024-05-09T05:13:21.809Z,5.00
2024-05-09T05:18:16.131Z,4.68
2024-05-09T05:20:43.133Z,4.72
2024-05-09T05:23:14.424Z,4.65
2024-05-09T05:25:41.416Z,4.43
2024-05-09T05:28:07.892Z,4.57
2024-05-09T05:30:35.446Z,4.85
2024-05-09T05:33:02.174Z,4.22
2024-05-09T05:35:29.280Z,3.60
2024-05-09T05:37:56.014Z,3.70
2024-05-09T05:40:28.705Z,3.30
2024-05-09T05:43:02.656Z,3.65
2024-05-09T05:45:29.057Z,3.30
2024-05-09T05:47:55.711Z,3.25
2024-05-09T05:50:27.936Z,3.20
2024-05-09T05:53:01.814Z,3.50
2024-05-09T05:55:28.276Z,3.38
2024-05-09T05:57:54.633Z,3.50
2024-05-09T06:00:29.325Z,3.30
2024-05-09T06:03:02.000Z,2.95
2024-05-09T06:05:28.790Z,3.30
2024-05-09T06:07:55.276Z,2.97
2024-05-09T06:10:26.154Z,3.03
2024-05-09T06:13:00.858Z,2.95
2024-05-09T06:15:27.462Z,2.88
2024-05-09T06:17:54.255Z,3.28
2024-05-09T06:20:31.084Z,3.30
2024-05-09T06:23:02.413Z,2.88
2024-05-09T06:25:28.835Z,2.67
2024-05-09T06:27:55.326Z,3.13
2024-05-09T06:30:29.913Z,2.67
2024-05-09T06:33:04.478Z,3.20
2024-05-09T06:35:31.258Z,3.03
2024-05-09T06:37:57.908Z,2.95
2024-05-09T06:40:36.110Z,3.17
2024-05-09T06:43:05.256Z,2.85
2024-05-09T06:45:31.667Z,2.88
2024-05-09T06:47:58.210Z,2.58
2024-05-09T06:50:28.295Z,2.70
2024-05-09T06:52:58.079Z,2.83
2024-05-09T06:55:24.503Z,2.72
2024-05-09T06:57:50.845Z,3.00
2024-05-09T07:00:23.102Z,3.10
2024-05-09T07:02:57.656Z,3.15
2024-05-09T07:05:26.238Z,2.80
2024-05-09T07:10:28.311Z,2.70
2024-05-09T07:12:59.004Z,3.15
2024-05-09T07:15:25.785Z,3.15
2024-05-09T07:17:52.285Z,2.95
2024-05-09T07:20:27.531Z,2.50
2024-05-09T07:23:00.419Z,2.78
2024-05-09T07:25:26.821Z,3.15
2024-05-09T07:27:57.885Z,3.13
2024-05-09T07:30:39.135Z,3.22
2024-05-09T07:33:05.753Z,3.28
2024-05-09T07:35:32.455Z,3.40
2024-05-09T07:37:59.074Z,3.08
2024-05-09T07:40:33.149Z,2.90
2024-05-09T07:43:07.127Z,2.80
2024-05-09T07:52:23.279Z,2.97
2024-05-09T07:53:38.397Z,3.00
2024-05-09T07:56:06.315Z,3.25
2024-05-09T08:00:59.321Z,3.28
2024-05-09T08:03:27.783Z,3.45
2024-05-09T08:05:57.342Z,3.10
2024-05-09T08:08:23.710Z,3.28
2024-05-09T08:10:50.687Z,3.28
2024-05-09T08:13:20.274Z,3.28
2024-05-09T08:15:46.884Z,3.10
2024-05-09T08:18:13.394Z,3.08
2024-05-09T08:20:41.397Z,3.70
2024-05-09T08:23:07.838Z,4.00
2024-05-09T08:25:34.244Z,3.33
2024-05-09T08:28:00.807Z,3.53
2024-05-09T08:30:33.627Z,3.10
2024-05-09T08:33:03.991Z,3.08
2024-05-09T08:35:30.527Z,3.28
2024-05-09T08:37:57.004Z,3.00
2024-05-09T08:40:30.749Z,2.97
2024-05-09T08:43:02.323Z,3.20
2024-05-09T08:47:56.168Z,2.53
2024-05-09T08:50:31.952Z,2.90
2024-05-09T08:53:04.836Z,2.70
2024-05-09T08:55:31.403Z,2.50
2024-05-09T08:57:59.171Z,3.38
2024-05-09T09:00:35.509Z,3.00
2024-05-09T09:03:05.762Z,2.78
2024-05-09T09:05:33.703Z,2.28
2024-05-09T09:08:00.416Z,2.85
2024-05-09T09:10:31.975Z,2.80
2024-05-09T09:13:04.899Z,2.70
2024-05-09T09:15:32.007Z,2.30
2024-05-09T09:17:59.410Z,2.50
2024-05-09T09:20:33.858Z,2.40
2024-05-09T09:23:03.054Z,2.30
2024-05-09T09:25:29.436Z,2.70
2024-05-09T09:27:57.407Z,2.25
2024-05-09T09:30:34.553Z,2.08
2024-05-09T09:33:04.091Z,2.28
2024-05-09T09:35:30.538Z,2.50
2024-05-09T09:37:59.833Z,4.10
2024-05-09T09:40:32.233Z,2.30
2024-05-09T09:43:01.031Z,2.40
2024-05-09T09:45:28.624Z,2.20
2024-05-09T09:47:56.395Z,2.28
2024-05-09T09:50:27.988Z,2.20
2024-05-09T09:53:00.671Z,2.58
2024-05-09T09:55:28.254Z,2.70
2024-05-09T09:57:55.855Z,2.40
2024-05-09T10:00:27.466Z,2.28
2024-05-09T10:02:58.906Z,2.25
2024-05-09T10:05:26.149Z,2.20
2024-05-09T10:07:53.202Z,2.40
2024-05-09T10:10:30.286Z,2.50
2024-05-09T10:13:02.303Z,2.22
2024-05-09T10:15:28.979Z,2.10
2024-05-09T10:18:04.261Z,2.05
2024-05-09T10:20:41.241Z,1.90
2024-05-09T10:23:23.838Z,2.50
2024-05-09T10:26:00.529Z,2.47
2024-05-09T10:28:27.539Z,2.20
2024-05-09T10:31:07.253Z,2.30
2024-05-09T10:36:02.570Z,2.22
2024-05-09T10:38:29.467Z,2.40
2024-05-09T10:40:59.831Z,2.58
2024-05-09T10:43:26.383Z,2.75
2024-05-09T10:45:52.899Z,2.22
2024-05-09T10:48:19.472Z,2.40
2024-05-09T10:50:46.953Z,2.53
2024-05-09T10:53:13.334Z,2.70
2024-05-09T10:55:39.743Z,2.22
2024-05-09T10:58:17.714Z,2.63
2024-05-09T11:00:44.335Z,2.85
2024-05-09T11:03:11.401Z,2.42
2024-05-09T11:05:38.021Z,2.33
2024-05-09T11:08:04.638Z,2.42
2024-05-09T11:10:34.087Z,2.40
2024-05-09T11:13:01.087Z,2.17
2024-05-09T11:15:37.557Z,2.50
2024-05-09T11:18:04.133Z,2.25
2024-05-09T11:20:35.491Z,2.95
2024-05-09T11:23:12.462Z,2.70
2024-05-09T11:25:38.847Z,3.45
2024-05-09T11:28:05.962Z,3.20
2024-05-09T11:30:35.219Z,2.70
2024-05-09T11:33:01.762Z,2.97
2024-05-09T11:35:29.282Z,3.25
2024-05-09T11:37:55.641Z,3.28
2024-05-09T11:40:25.710Z,3.45
2024-05-09T11:42:58.543Z,3.08
2024-05-09T11:45:25.322Z,2.50
2024-05-09T11:47:51.984Z,3.17
2024-05-09T11:50:26.892Z,2.20
2024-05-09T11:52:56.578Z,2.50
2024-05-09T11:55:27.203Z,2.00
2024-05-09T11:57:54.575Z,2.50
2024-05-09T12:00:29.448Z,3.38
2024-05-09T12:03:04.538Z,2.35
2024-05-09T12:05:31.417Z,2.40
2024-05-09T12:07:57.885Z,2.85
2024-05-09T12:10:32.527Z,2.53
2024-05-09T12:13:01.691Z,2.30
2024-05-09T12:15:28.194Z,2.63
2024-05-09T12:17:55.971Z,3.17
2024-05-09T12:20:32.152Z,2.58
2024-05-09T12:23:02.388Z,2.35
2024-05-09T12:25:28.773Z,2.50
2024-05-09T12:27:55.238Z,2.50
2024-05-09T12:30:32.505Z,2.10
2024-05-09T12:33:04.001Z,2.05
2024-05-09T12:35:30.455Z,2.80
2024-05-09T12:37:56.831Z,2.15
2024-05-09T12:40:31.633Z,2.17
2024-05-09T12:43:02.717Z,2.20
2024-05-09T12:45:29.130Z,2.40
2024-05-09T12:47:55.688Z,2.30
2024-05-09T12:50:29.502Z,2.38
2024-05-09T12:52:58.925Z,2.17
2024-05-09T12:55:25.326Z,2.60
2024-05-09T12:57:51.739Z,2.35
2024-05-09T13:00:24.005Z,2.30
2024-05-09T13:02:57.604Z,2.38
2024-05-09T13:05:24.542Z,2.30
2024-05-09T13:07:51.100Z,1.77
2024-05-09T13:10:25.548Z,1.98
2024-05-09T13:12:58.036Z,2.10
2024-05-09T13:15:24.475Z,2.20
2024-05-09T13:17:50.936Z,2.40
2024-05-09T13:20:26.061Z,2.22
2024-05-09T13:22:58.358Z,2.00
2024-05-09T13:25:24.784Z,2.03
2024-05-09T13:27:51.187Z,1.95
2024-05-09T13:30:25.928Z,2.42
2024-05-09T13:32:56.556Z,2.10
2024-05-09T13:35:23.106Z,2.03
2024-05-09T13:37:49.467Z,2.22
2024-05-09T13:40:23.255Z,2.38
2024-05-09T13:42:53.683Z,2.05
2024-05-09T13:45:20.156Z,2.00
2024-05-09T13:47:46.640Z,2.05
2024-05-09T13:50:20.584Z,2.10
2024-05-09T13:52:54.498Z,2.10
2024-05-09T13:55:20.914Z,2.08
2024-05-09T13:57:47.364Z,1.90
2024-05-09T14:00:27.116Z,1.90
2024-05-09T14:03:00.554Z,2.00
2024-05-09T14:05:27.120Z,2.10
2024-05-09T14:07:53.640Z,2.00
2024-05-09T14:10:28.457Z,2.05
2024-05-09T14:12:57.872Z,2.05
2024-05-09T14:15:25.506Z,2.08
2024-05-09T14:17:52.505Z,1.80
2024-05-09T14:20:28.481Z,2.20
2024-05-09T14:22:58.310Z,1.90
2024-05-09T14:25:26.469Z,2.05
2024-05-09T14:27:53.326Z,2.30
2024-05-09T14:30:29.574Z,1.88
2024-05-09T14:33:02.150Z,2.00
2024-05-09T14:35:29.510Z,1.88
2024-05-09T14:37:57.192Z,1.90
2024-05-09T14:42:54.250Z,2.00
2024-05-09T14:45:20.650Z,1.90
2024-05-09T14:47:48.532Z,1.85
2024-05-09T14:50:23.781Z,2.28
2024-05-09T14:52:58.083Z,2.13
2024-05-09T14:55:24.508Z,1.73
2024-05-09T14:57:50.979Z,2.08
2024-05-09T15:00:25.540Z,2.03
2024-05-09T15:02:55.683Z,1.90
2024-05-09T15:05:22.232Z,2.00
2024-05-09T15:07:48.864Z,2.08
2024-05-09T15:10:23.807Z,2.33
2024-05-09T15:12:57.934Z,2.42
2024-05-09T15:15:24.347Z,2.35
2024-05-09T15:17:50.845Z,2.33
2024-05-09T15:20:24.187Z,2.00
2024-05-09T15:22:57.738Z,2.67
2024-05-09T15:25:26.455Z,2.72
2024-05-09T15:27:52.877Z,2.10
2024-05-09T15:30:28.161Z,2.33
2024-05-09T15:32:57.847Z,2.25
2024-05-09T15:35:24.254Z,3.65
2024-05-09T15:37:50.697Z,2.88
2024-05-09T15:40:26.238Z,2.17
2024-05-09T15:43:01.731Z,2.00
2024-05-09T15:45:29.183Z,1.75
2024-05-09T15:47:56.188Z,1.92
2024-05-09T15:50:32.318Z,2.00
2024-05-09T15:53:04.086Z,2.13
2024-05-09T15:55:33.537Z,2.20
2024-05-09T15:58:00.717Z,1.92
2024-05-09T16:03:03.251Z,1.88
2024-05-09T16:05:29.808Z,1.85
2024-05-09T16:07:56.271Z,1.90
2024-05-09T16:10:26.068Z,1.95
2024-05-09T16:12:58.700Z,2.00
2024-05-09T16:15:25.261Z,2.03
2024-05-09T16:17:51.655Z,2.17
2024-05-09T16:20:28.988Z,1.90
2024-05-09T16:23:03.219Z,2.05
2024-05-09T16:25:29.624Z,1.92
2024-05-09T16:27:56.114Z,1.85
2024-05-09T16:30:31.388Z,2.03
2024-05-09T16:33:01.509Z,1.85
2024-05-09T16:35:28.103Z,2.08
2024-05-09T16:37:55.007Z,2.22
2024-05-09T16:40:29.760Z,1.90
2024-05-09T16:43:03.822Z,1.80
2024-05-09T16:45:30.695Z,1.80
2024-05-09T16:47:57.293Z,1.80
2024-05-09T16:50:29.386Z,2.05
2024-05-09T16:52:59.529Z,1.98
2024-05-09T16:55:26.009Z,1.92
2024-05-09T16:57:52.448Z,1.90
2024-05-09T17:00:30.741Z,1.80
2024-05-09T17:03:05.444Z,1.70
2024-05-09T17:05:32.094Z,2.00
2024-05-09T17:07:58.560Z,1.90
2024-05-09T17:10:31.361Z,1.80
2024-05-09T17:12:59.951Z,1.90
2024-05-09T17:15:26.329Z,2.05
2024-05-09T17:17:52.751Z,2.10
2024-05-09T17:20:29.267Z,2.00
2024-05-09T17:23:00.142Z,2.08
2024-05-09T17:25:26.792Z,1.83
2024-05-09T17:27:53.429Z,1.83
2024-05-09T17:30:28.617Z,1.90
2024-05-09T17:32:59.427Z,1.80
2024-05-09T17:35:25.848Z,2.28
2024-05-09T17:37:52.201Z,2.00
2024-05-09T17:40:27.422Z,1.90
2024-05-09T17:42:59.611Z,2.05
2024-05-09T17:50:27.247Z,2.10
2024-05-09T17:53:00.794Z,2.30
2024-05-09T18:00:28.955Z,1.95
2024-05-09T18:03:03.392Z,1.83
2024-05-09T18:05:30.073Z,2.10
2024-05-09T18:07:57.028Z,1.88
2024-05-09T18:10:29.818Z,1.73
2024-05-09T18:13:02.262Z,2.20
2024-05-09T18:15:28.718Z,1.88
2024-05-09T18:17:55.191Z,2.17
2024-05-09T18:20:32.471Z,2.28
2024-05-09T18:23:07.026Z,2.25
2024-05-09T18:25:33.433Z,2.20
2024-05-09T18:28:01.535Z,2.30
2024-05-09T18:30:33.891Z,2.25
2024-05-09T18:33:02.760Z,2.45
2024-05-09T18:35:29.652Z,2.45
2024-05-09T18:37:56.021Z,2.08
2024-05-09T18:40:31.222Z,2.25
2024-05-09T18:43:01.777Z,2.40
2024-05-09T18:45:28.692Z,2.50
2024-05-09T18:47:55.498Z,2.65
2024-05-09T18:50:31.719Z,2.88
2024-05-09T18:53:02.682Z,2.75
2024-05-09T18:55:29.331Z,3.17
2024-05-09T18:57:56.304Z,3.10
2024-05-09T19:00:31.462Z,3.13
2024-05-09T19:03:04.689Z,3.00
2024-05-09T19:05:31.983Z,2.72
2024-05-09T19:07:58.531Z,2.42
2024-05-09T19:10:28.857Z,2.50
2024-05-09T19:12:59.944Z,2.83
2024-05-09T19:15:26.697Z,2.80
2024-05-09T19:17:53.216Z,2.70
2024-05-09T19:20:25.507Z,2.63
2024-05-09T19:22:58.302Z,2.30
2024-05-09T19:25:24.715Z,2.65
2024-05-09T19:27:51.231Z,2.60
2024-05-09T19:30:28.955Z,2.63
2024-05-09T19:33:04.555Z,2.60
2024-05-09T19:35:31.126Z,2.40
2024-05-09T19:37:57.537Z,2.70
2024-05-09T19:40:30.432Z,2.38
2024-05-09T19:42:59.305Z,2.30
2024-05-09T19:45:26.048Z,2.53
2024-05-09T19:47:52.670Z,2.47
2024-05-09T19:50:26.803Z,2.30
2024-05-09T19:53:01.871Z,3.10
2024-05-09T19:55:28.215Z,3.40
2024-05-09T19:57:54.679Z,3.90
2024-05-09T20:00:26.509Z,3.20
2024-05-09T20:02:59.069Z,3.95
2024-05-09T20:05:26.260Z,3.35
2024-05-09T20:07:53.270Z,3.40
2024-05-09T20:10:23.927Z,3.25
2024-05-09T20:12:55.667Z,3.10
2024-05-09T20:15:22.107Z,2.90
2024-05-09T20:17:48.680Z,3.22
2024-05-09T20:20:24.574Z,2.67
2024-05-09T20:22:59.544Z,3.13
2024-05-09T20:25:26.057Z,3.10
2024-05-09T20:27:52.603Z,3.28
2024-05-09T20:30:25.516Z,2.70
2024-05-09T20:32:58.005Z,2.67
2024-05-09T20:35:26.155Z,2.60
2024-05-09T20:37:52.560Z,2.90
2024-05-09T20:40:25.760Z,2.50
2024-05-09T20:42:58.065Z,2.22
2024-05-09T20:45:24.445Z,2.28
2024-05-09T20:47:50.934Z,2.45
2024-05-09T20:50:27.612Z,2.20
2024-05-09T20:53:01.370Z,2.47
2024-05-09T20:55:29.425Z,2.72
2024-05-09T20:57:56.179Z,3.17
2024-05-09T21:00:29.940Z,2.55
2024-05-09T21:03:04.386Z,2.60
2024-05-09T21:05:30.931Z,2.60
2024-05-09T21:07:57.586Z,2.20
2024-05-09T21:10:26.947Z,2.10
2024-05-09T21:12:53.858Z,2.40
2024-05-09T21:15:20.245Z,2.50
2024-05-09T21:17:46.664Z,2.40
2024-05-09T21:20:17.384Z,2.00
2024-05-09T21:22:47.170Z,2.38
2024-05-09T21:25:13.803Z,2.55
2024-05-09T21:27:40.390Z,2.40
2024-05-09T21:30:10.087Z,3.47
2024-05-09T21:32:39.644Z,3.08
2024-05-09T21:35:06.164Z,2.30
2024-05-09T21:37:32.505Z,2.40
2024-05-09T21:39:59.048Z,2.17
2024-05-09T21:42:25.431Z,2.30
2024-05-09T21:44:51.767Z,2.72
2024-05-09T21:47:18.237Z,2.53
2024-05-09T21:49:47.067Z,2.30
2024-05-09T21:52:13.766Z,2.38
2024-05-09T21:54:40.247Z,2.40
2024-05-09T21:57:08.881Z,2.20
2024-05-09T21:59:35.282Z,2.20
2024-05-09T22:02:01.885Z,2.47
2024-05-09T22:04:28.566Z,2.33
2024-05-09T22:06:55.017Z,1.90
2024-05-09T22:09:21.590Z,2.10
2024-05-09T22:11:51.341Z,2.42
2024-05-09T22:14:21.057Z,2.50
2024-05-09T22:16:47.494Z,2.60
2024-05-09T22:19:13.964Z,2.25
2024-05-09T22:21:40.350Z,2.30
2024-05-09T22:24:06.820Z,2.60
2024-05-09T22:26:35.937Z,2.10
2024-05-09T22:29:02.301Z,2.33
2024-05-09T22:31:28.790Z,2.20
2024-05-09T22:33:55.610Z,2.33
2024-05-09T22:36:22.283Z,2.40
2024-05-09T22:38:48.737Z,2.50
2024-05-09T22:41:15.108Z,2.10
2024-05-09T22:43:41.470Z,2.38
2024-05-09T22:46:08.119Z,2.30
2024-05-09T22:48:34.837Z,2.28
2024-05-09T22:51:03.888Z,2.10
2024-05-09T22:53:30.296Z,2.20
2024-05-09T22:55:56.714Z,2.03
2024-05-09T22:58:23.588Z,2.28
2024-05-09T23:00:50.441Z,2.20
2024-05-09T23:05:47.520Z,1.75
2024-05-09T23:08:13.903Z,2.25
2024-05-09T23:10:40.372Z,1.77
2024-05-09T23:13:07.807Z,1.98
2024-05-09T23:15:35.600Z,2.30
2024-05-09T23:18:02.221Z,2.20
2024-05-09T23:20:36.504Z,2.28
2024-05-09T23:23:06.262Z,2.20
2024-05-09T23:25:32.812Z,2.15
2024-05-09T23:27:59.259Z,2.28
2024-05-09T23:30:34.245Z,2.20
2024-05-09T23:33:04.972Z,2.40
2024-05-09T23:35:31.551Z,2.35
2024-05-09T23:37:57.933Z,2.35
2024-05-09T23:40:34.664Z,2.10
2024-05-09T23:43:05.048Z,2.40
2024-05-09T23:45:33.090Z,1.90
2024-05-09T23:47:59.790Z,2.30
2024-05-09T23:50:33.701Z,1.90
2024-05-09T23:53:03.154Z,2.17
2024-05-09T23:55:31.092Z,2.03
2024-05-09T23:57:58.289Z,2.20
